Time;durP1;ratioP1;P1;durP2;ratioP2;P2;SDS_P1;SDS_P2;PMS_P1;PMS_P2;Temp;Humidity;BMP_temperature;BMP_pressure;BME280_temperature;BME280_humidity;BME280_pressure;Samples;Min_cycle;Max_cycle;Signal;HPM_P1;HPM_P2
2022/09/07 00:00:51;;;;;;;3.40;1.40;;;18.20;99.90;;;;;;5084828;28;20383;-73
2022/09/07 00:03:17;;;;;;;3.22;1.60;;;18.20;99.90;;;;;;5067873;28;20403;-70
2022/09/07 00:05:45;;;;;;;2.30;1.40;;;18.20;99.90;;;;;;5068358;28;20877;-70
2022/09/07 00:08:11;;;;;;;1.95;1.27;;;18.20;99.90;;;;;;5086832;28;20388;-71
2022/09/07 00:10:37;;;;;;;3.65;1.70;;;18.10;99.90;;;;;;5088033;28;20558;-72
2022/09/07 00:13:03;;;;;;;3.67;1.40;;;18.20;99.90;;;;;;5087410;28;20388;-71
2022/09/07 00:15:29;;;;;;;2.15;1.20;;;18.20;99.90;;;;;;5087466;28;20380;-71
2022/09/07 00:17:54;;;;;;;1.92;1.30;;;18.20;99.90;;;;;;5086834;28;20399;-71
2022/09/07 00:20:20;;;;;;;2.70;1.40;;;18.10;99.90;;;;;;5088164;28;20379;-71
2022/09/07 00:22:46;;;;;;;2.08;1.38;;;18.10;99.90;;;;;;5088035;28;20450;-72
2022/09/07 00:25:12;;;;;;;2.10;1.40;;;18.10;99.90;;;;;;5089127;28;20555;-71
2022/09/07 00:27:38;;;;;;;2.55;1.60;;;18.10;99.90;;;;;;5089577;28;20406;-72
2022/09/07 00:30:05;;;;;;;4.88;1.50;;;18.10;99.90;;;;;;5089072;28;20400;-71
2022/09/07 00:32:30;;;;;;;3.80;1.48;;;18.10;99.90;;;;;;5090095;28;20419;-71
2022/09/07 00:34:56;;;;;;;2.00;1.58;;;18.00;99.90;;;;;;5087935;28;20411;-72
2022/09/07 00:37:22;;;;;;;2.20;1.57;;;18.00;99.90;;;;;;5069858;28;20414;-71
2022/09/07 00:39:48;;;;;;;2.38;1.60;;;18.10;99.90;;;;;;5088371;28;20399;-71
2022/09/07 00:42:19;;;;;;;3.15;1.60;;;18.00;99.90;;;;;;5086581;28;20449;-71
2022/09/07 00:45:06;;;;;;;2.50;1.55;;;18.00;99.90;;;;;;5085781;28;20382;-71
2022/09/07 00:47:40;;;;;;;4.32;2.05;;;18.00;99.90;;;;;;5067242;28;20391;-72
2022/09/07 00:50:24;;;;;;;1.58;1.48;;;18.00;99.90;;;;;;5066962;28;20729;-72
2022/09/07 00:52:59;;;;;;;4.40;1.75;;;17.90;99.90;;;;;;5067878;28;20685;-73
2022/09/07 00:55:26;;;;;;;3.45;1.52;;;17.90;99.90;;;;;;5085433;28;20398;-72
2022/09/07 00:57:54;;;;;;;5.85;1.65;;;17.90;99.90;;;;;;5086261;28;20414;-72
2022/09/07 01:00:20;;;;;;;5.30;1.92;;;17.90;99.90;;;;;;5086679;28;20379;-72
2022/09/07 01:02:48;;;;;;;2.90;1.70;;;17.90;99.90;;;;;;5088641;28;20466;-72
2022/09/07 01:05:39;;;;;;;1.98;1.55;;;17.90;99.90;;;;;;5036171;28;20401;-73
2022/09/07 01:08:06;;;;;;;2.13;1.70;;;17.80;99.90;;;;;;5028922;28;20420;-73
2022/09/07 01:10:33;;;;;;;2.13;1.30;;;17.90;99.90;;;;;;5034022;28;20404;-72
2022/09/07 01:12:59;;;;;;;2.75;1.38;;;17.90;99.90;;;;;;5052284;28;20400;-73
2022/09/07 01:15:37;;;;;;;4.15;1.77;;;17.90;99.90;;;;;;5035842;28;20381;-72
2022/09/07 01:18:19;;;;;;;1.90;1.40;;;17.90;99.90;;;;;;5036826;28;20532;-72
2022/09/07 01:20:49;;;;;;;1.77;1.40;;;17.90;99.90;;;;;;5036191;28;20528;-71
2022/09/07 01:23:48;;;;;;;1.95;1.67;;;17.90;99.90;;;;;;5053967;28;20857;-70
2022/09/07 01:26:51;;;;;;;3.70;1.75;;;17.90;99.90;;;;;;5053207;28;20400;-71
2022/09/07 01:29:31;;;;;;;2.42;1.52;;;17.80;99.90;;;;;;5037926;28;20393;-72
2022/09/07 01:32:05;;;;;;;5.22;1.60;;;17.80;99.90;;;;;;5037396;28;20424;-72
2022/09/07 01:34:31;;;;;;;1.92;1.45;;;17.80;99.90;;;;;;5037098;28;20423;-73
2022/09/07 01:37:13;;;;;;;3.30;1.40;;;17.80;99.90;;;;;;5037223;28;20686;-72
2022/09/07 01:39:59;;;;;;;2.00;1.60;;;17.80;99.90;;;;;;5036186;28;20658;-72
2022/09/07 01:42:31;;;;;;;2.35;1.40;;;17.80;99.90;;;;;;5036510;28;20481;-72
2022/09/07 01:45:00;;;;;;;3.38;1.50;;;17.80;99.90;;;;;;5035458;28;20385;-72
2022/09/07 01:47:35;;;;;;;4.25;1.60;;;17.80;99.90;;;;;;5035008;28;20389;-72
2022/09/07 01:50:07;;;;;;;4.30;1.40;;;17.80;99.90;;;;;;5033415;28;20781;-72
2022/09/07 01:52:39;;;;;;;3.72;2.00;;;17.80;99.90;;;;;;5050109;28;20858;-73
2022/09/07 01:55:13;;;;;;;2.60;1.60;;;17.80;99.90;;;;;;5033303;28;20404;-72
2022/09/07 01:57:45;;;;;;;3.72;1.60;;;17.70;99.90;;;;;;5033724;28;20417;-72
2022/09/07 02:00:17;;;;;;;3.63;1.60;;;17.80;99.90;;;;;;5035778;28;20388;-72
2022/09/07 02:03:00;;;;;;;3.58;1.85;;;17.80;99.90;;;;;;5036030;28;20386;-72
2022/09/07 02:05:49;;;;;;;2.50;1.85;;;17.70;99.90;;;;;;5035850;28;20416;-73
2022/09/07 02:08:23;;;;;;;2.08;1.55;;;17.70;99.90;;;;;;5052390;28;20409;-73
2022/09/07 02:10:54;;;;;;;2.00;1.50;;;17.70;99.90;;;;;;5035992;28;20389;-73
2022/09/07 02:13:28;;;;;;;2.53;1.67;;;17.70;99.90;;;;;;5053811;28;20389;-73
2022/09/07 02:16:09;;;;;;;3.60;1.92;;;17.70;99.90;;;;;;5036075;28;20811;-73
2022/09/07 02:18:44;;;;;;;4.90;1.80;;;17.70;99.90;;;;;;5052795;28;20812;-72
2022/09/07 02:21:10;;;;;;;2.90;1.60;;;17.70;99.90;;;;;;5035703;28;20384;-73
2022/09/07 02:23:45;;;;;;;2.50;1.83;;;17.70;99.90;;;;;;5036319;28;20475;-73
2022/09/07 02:26:15;;;;;;;8.43;2.10;;;17.70;99.90;;;;;;5054665;28;20476;-72
2022/09/07 02:28:41;;;;;;;2.92;1.80;;;17.70;99.90;;;;;;5036445;28;20627;-73
2022/09/07 02:31:07;;;;;;;1.90;1.53;;;17.70;99.90;;;;;;5035873;28;20817;-73
2022/09/07 02:33:32;;;;;;;2.47;1.63;;;17.70;99.90;;;;;;5052960;28;20374;-73
2022/09/07 02:36:00;;;;;;;2.63;1.60;;;17.70;99.90;;;;;;5035112;28;20396;-73
2022/09/07 02:38:26;;;;;;;3.10;1.55;;;17.70;99.90;;;;;;5038799;28;20465;-73
2022/09/07 02:40:54;;;;;;;1.83;1.50;;;17.60;99.90;;;;;;5039641;28;20796;-73
2022/09/07 02:43:21;;;;;;;2.03;1.80;;;17.70;99.90;;;;;;5057010;28;20432;-72
2022/09/07 02:46:16;;;;;;;2.92;1.88;;;17.70;99.90;;;;;;5038922;28;20809;-72
2022/09/07 02:48:53;;;;;;;3.70;2.00;;;17.60;99.90;;;;;;5037911;28;20647;-73
2022/09/07 02:51:34;;;;;;;2.60;1.55;;;17.60;99.90;;;;;;5036797;28;20400;-73
2022/09/07 02:54:38;;;;;;;4.53;1.70;;;17.60;99.90;;;;;;5036181;28;20404;-73
2022/09/07 02:57:11;;;;;;;2.20;1.58;;;17.60;99.90;;;;;;5038625;28;20409;-73
2022/09/07 03:00:01;;;;;;;3.10;2.00;;;17.60;99.90;;;;;;5037092;28;20545;-72
2022/09/07 03:02:38;;;;;;;5.00;1.80;;;17.60;99.90;;;;;;5037444;28;20392;-72
2022/09/07 03:05:24;;;;;;;3.17;1.70;;;17.60;99.90;;;;;;5072201;28;20666;-73
2022/09/07 03:08:09;;;;;;;2.65;1.60;;;17.60;99.90;;;;;;5075881;28;20391;-73
2022/09/07 03:10:38;;;;;;;1.67;1.58;;;17.60;99.90;;;;;;5076126;28;20431;-72
2022/09/07 03:13:04;;;;;;;3.22;1.70;;;17.60;99.90;;;;;;5089635;28;20384;-72
2022/09/07 03:15:29;;;;;;;3.38;1.85;;;17.60;99.90;;;;;;5092596;28;20453;-72
2022/09/07 03:17:55;;;;;;;4.13;2.03;;;17.60;99.90;;;;;;5092754;28;20399;-73
2022/09/07 03:20:22;;;;;;;2.15;1.80;;;17.60;99.90;;;;;;5092012;28;20445;-73
2022/09/07 03:22:49;;;;;;;2.20;2.00;;;17.50;99.90;;;;;;5093159;28;20388;-73
2022/09/07 03:25:15;;;;;;;2.45;1.80;;;17.50;99.90;;;;;;5092233;28;20504;-73
2022/09/07 03:27:41;;;;;;;2.63;1.88;;;17.50;99.90;;;;;;5075407;28;20867;-73
2022/09/07 03:30:09;;;;;;;2.20;1.70;;;17.50;99.90;;;;;;5093065;28;20493;-72
2022/09/07 03:32:36;;;;;;;2.33;1.70;;;17.50;99.90;;;;;;5092590;28;20414;-72
2022/09/07 03:35:02;;;;;;;2.40;1.80;;;17.50;99.90;;;;;;5091624;28;20803;-72
2022/09/07 03:37:28;;;;;;;2.58;2.00;;;17.50;99.90;;;;;;5075576;28;20799;-73
2022/09/07 03:39:54;;;;;;;3.33;2.00;;;17.50;99.90;;;;;;5076057;28;20403;-73
2022/09/07 03:42:20;;;;;;;3.30;1.92;;;17.40;99.90;;;;;;5091704;28;20795;-73
2022/09/07 03:44:48;;;;;;;2.92;2.10;;;17.40;99.90;;;;;;5088543;28;20391;-72
2022/09/07 03:47:17;;;;;;;2.57;2.00;;;17.40;99.90;;;;;;5089827;28;20494;-73
2022/09/07 03:49:43;;;;;;;1.92;1.73;;;17.40;99.90;;;;;;5087380;28;20391;-72
2022/09/07 03:52:09;;;;;;;2.20;1.98;;;17.40;99.90;;;;;;5087417;28;20784;-72
2022/09/07 03:54:34;;;;;;;3.07;2.07;;;17.40;99.90;;;;;;5087259;28;20391;-72
2022/09/07 03:57:00;;;;;;;3.17;2.25;;;17.40;99.90;;;;;;5088651;28;20857;-72
2022/09/07 03:59:25;;;;;;;3.53;2.10;;;17.40;99.90;;;;;;5089997;28;20705;-72
2022/09/07 04:01:51;;;;;;;2.40;2.10;;;17.40;99.90;;;;;;5090728;28;20447;-71
2022/09/07 04:04:16;;;;;;;2.60;2.03;;;17.40;99.90;;;;;;5090394;28;20473;-72
2022/09/07 04:06:42;;;;;;;4.00;2.70;;;17.40;99.90;;;;;;5091020;28;20387;-71
2022/09/07 04:09:11;;;;;;;4.50;2.17;;;17.30;99.90;;;;;;5089347;28;20375;-72
2022/09/07 04:11:39;;;;;;;2.40;2.20;;;17.30;99.90;;;;;;5088184;28;20388;-72
2022/09/07 04:14:05;;;;;;;3.33;2.13;;;17.30;99.90;;;;;;5087768;28;20382;-72
2022/09/07 04:16:31;;;;;;;3.67;2.20;;;17.30;99.90;;;;;;5085399;28;20404;-72
2022/09/07 04:18:57;;;;;;;3.90;2.33;;;17.30;99.90;;;;;;5065533;28;20717;-72
2022/09/07 04:21:25;;;;;;;2.40;2.20;;;17.20;99.90;;;;;;5066789;28;20376;-72
2022/09/07 04:23:51;;;;;;;3.60;2.30;;;17.20;99.90;;;;;;5066942;28;20477;-73
2022/09/07 04:26:25;;;;;;;2.93;2.20;;;17.30;99.90;;;;;;5083006;28;20403;-73
2022/09/07 04:28:52;;;;;;;3.38;2.60;;;17.30;99.90;;;;;;5081422;28;20478;-72
2022/09/07 04:31:19;;;;;;;2.97;2.30;;;17.20;99.90;;;;;;5081807;28;20380;-72
2022/09/07 04:33:45;;;;;;;2.95;2.55;;;17.20;99.90;;;;;;5084066;28;20775;-73
2022/09/07 04:36:12;;;;;;;4.32;2.70;;;17.20;99.90;;;;;;5084678;28;20482;-73
2022/09/07 04:38:38;;;;;;;3.70;2.50;;;17.30;99.90;;;;;;5084113;28;20411;-73
2022/09/07 04:41:08;;;;;;;4.30;2.72;;;17.30;99.90;;;;;;5084443;28;20457;-73
2022/09/07 04:43:34;;;;;;;4.68;2.90;;;17.30;99.90;;;;;;5084774;28;20437;-72
2022/09/07 04:46:05;;;;;;;4.30;2.80;;;17.20;99.90;;;;;;5069639;28;20406;-72
2022/09/07 04:48:31;;;;;;;5.63;2.60;;;17.20;99.90;;;;;;5086376;28;20424;-72
2022/09/07 04:51:08;;;;;;;5.45;2.88;;;17.20;99.90;;;;;;5083555;28;20398;-72
2022/09/07 04:53:35;;;;;;;3.78;2.60;;;17.20;99.90;;;;;;5067359;28;20386;-73
2022/09/07 04:56:01;;;;;;;2.88;2.45;;;17.20;99.90;;;;;;5068110;28;20407;-72
2022/09/07 04:58:27;;;;;;;5.45;2.85;;;17.20;99.90;;;;;;5084225;28;20414;-72
2022/09/07 05:00:53;;;;;;;3.50;2.47;;;17.20;99.90;;;;;;5082792;28;20580;-73
2022/09/07 05:03:18;;;;;;;4.43;2.87;;;17.20;99.90;;;;;;5080774;28;20646;-72
2022/09/07 05:05:44;;;;;;;4.57;2.78;;;17.20;99.90;;;;;;5081476;28;20393;-72
2022/09/07 05:08:11;;;;;;;4.03;2.80;;;17.20;99.90;;;;;;5080763;28;20395;-73
2022/09/07 05:10:37;;;;;;;4.45;2.92;;;17.10;99.90;;;;;;5081268;28;20699;-72
2022/09/07 05:13:03;;;;;;;5.97;3.20;;;16.90;99.90;;;;;;5066773;28;20990;-72
2022/09/07 05:15:29;;;;;;;6.18;3.33;;;16.70;99.90;;;;;;5082625;28;20490;-73
2022/09/07 05:17:56;;;;;;;4.15;2.97;;;16.70;99.90;;;;;;5083012;28;20657;-72
2022/09/07 05:20:21;;;;;;;5.18;2.67;;;16.80;99.90;;;;;;5081416;28;20387;-73
2022/09/07 05:22:47;;;;;;;6.38;2.83;;;16.90;99.90;;;;;;5080442;28;20408;-73
2022/09/07 05:25:13;;;;;;;3.13;2.60;;;17.00;99.90;;;;;;5081079;28;20842;-72
2022/09/07 05:27:39;;;;;;;4.43;2.90;;;17.00;99.90;;;;;;5077794;28;20504;-73
2022/09/07 05:30:05;;;;;;;4.20;2.90;;;17.10;99.90;;;;;;5080034;28;20383;-73
2022/09/07 05:32:31;;;;;;;8.23;2.90;;;17.20;99.90;;;;;;5078601;28;20398;-73
2022/09/07 05:34:56;;;;;;;6.22;3.30;;;17.20;99.90;;;;;;5077564;28;20671;-72
2022/09/07 05:37:22;;;;;;;3.63;2.97;;;17.20;99.90;;;;;;5076051;28;20407;-73
2022/09/07 05:39:51;;;;;;;4.35;2.72;;;17.20;99.90;;;;;;5056510;28;22547;-73
2022/09/07 05:42:16;;;;;;;5.28;3.20;;;17.30;99.90;;;;;;5074915;28;20411;-73
2022/09/07 05:44:42;;;;;;;7.33;3.10;;;17.30;99.90;;;;;;5073873;28;20396;-73
2022/09/07 05:47:07;;;;;;;9.17;4.00;;;17.20;99.90;;;;;;5057275;28;20383;-73
2022/09/07 05:49:33;;;;;;;7.00;3.33;;;17.30;99.90;;;;;;5074287;28;20384;-73
2022/09/07 05:51:59;;;;;;;5.20;3.00;;;17.30;99.90;;;;;;5074559;28;20391;-73
2022/09/07 05:54:24;;;;;;;5.40;2.87;;;17.30;99.90;;;;;;5072318;28;20468;-73
2022/09/07 05:56:50;;;;;;;6.78;3.03;;;17.30;99.90;;;;;;5071553;28;20422;-73
2022/09/07 05:59:15;;;;;;;6.77;3.10;;;17.40;99.90;;;;;;5071725;28;20380;-73
2022/09/07 06:01:41;;;;;;;4.73;2.47;;;17.40;99.90;;;;;;5072136;28;20384;-71
2022/09/07 06:04:07;;;;;;;4.13;2.60;;;17.40;99.90;;;;;;5069144;28;20415;-73
2022/09/07 06:06:37;;;;;;;4.57;2.85;;;17.30;99.90;;;;;;5054849;28;20482;-73
2022/09/07 06:09:02;;;;;;;5.05;2.85;;;17.30;99.90;;;;;;5056572;28;20389;-72
2022/09/07 06:11:28;;;;;;;6.47;3.00;;;17.40;99.90;;;;;;5071153;28;20400;-73
2022/09/07 06:13:54;;;;;;;5.93;2.90;;;17.40;99.90;;;;;;5071172;28;20638;-73
2022/09/07 06:16:20;;;;;;;3.20;2.30;;;17.40;99.90;;;;;;5055972;28;20379;-73
2022/09/07 06:18:48;;;;;;;3.13;2.37;;;17.40;99.90;;;;;;5073757;28;20452;-72
2022/09/07 06:21:19;;;;;;;3.45;2.50;;;17.40;99.90;;;;;;5074997;28;20449;-73
2022/09/07 06:23:45;;;;;;;2.90;2.58;;;17.40;99.90;;;;;;5058288;28;20585;-73
2022/09/07 06:26:12;;;;;;;5.82;2.80;;;17.40;99.90;;;;;;5073088;28;20688;-72
2022/09/07 06:28:43;;;;;;;3.03;2.40;;;17.30;99.90;;;;;;5072411;28;20478;-71
2022/09/07 06:31:14;;;;;;;3.42;2.65;;;17.40;99.90;;;;;;5071420;28;20573;-71
2022/09/07 06:33:41;;;;;;;3.83;2.50;;;17.30;99.90;;;;;;5073201;28;20383;-72
2022/09/07 06:36:11;;;;;;;2.90;2.50;;;17.30;99.90;;;;;;5072757;28;20413;-72
2022/09/07 06:38:38;;;;;;;5.35;2.80;;;17.30;99.90;;;;;;5054810;28;20544;-72
2022/09/07 06:41:12;;;;;;;3.63;2.60;;;17.30;99.90;;;;;;5068426;28;20396;-72
2022/09/07 06:43:38;;;;;;;3.67;2.72;;;17.30;99.90;;;;;;5069567;28;20544;-72
2022/09/07 06:46:05;;;;;;;5.13;2.63;;;17.30;99.90;;;;;;5054898;28;20710;-72
2022/09/07 06:48:31;;;;;;;6.07;2.75;;;17.30;99.90;;;;;;5070345;28;20680;-73
2022/09/07 06:50:58;;;;;;;5.75;2.60;;;17.30;99.90;;;;;;5071355;28;20639;-73
2022/09/07 06:53:25;;;;;;;4.05;2.60;;;17.30;99.90;;;;;;5072040;28;20776;-73
2022/09/07 06:55:51;;;;;;;6.63;2.80;;;17.20;99.90;;;;;;5071672;28;20490;-73
2022/09/07 06:58:16;;;;;;;4.03;3.10;;;17.20;99.90;;;;;;5069948;28;20457;-73
2022/09/07 07:00:42;;;;;;;3.43;2.90;;;17.20;99.90;;;;;;5071854;28;20380;-73
2022/09/07 07:03:08;;;;;;;5.40;2.80;;;17.20;99.90;;;;;;5071763;28;20462;-72
2022/09/07 07:05:34;;;;;;;5.30;3.35;;;17.20;99.90;;;;;;5055643;28;20484;-72
2022/09/07 07:07:59;;;;;;;3.77;3.03;;;17.10;99.90;;;;;;5071755;28;20484;-73
2022/09/07 07:10:25;;;;;;;6.07;3.10;;;17.10;99.90;;;;;;5070104;28;20494;-72
2022/09/07 07:12:55;;;;;;;4.38;3.13;;;17.00;99.90;;;;;;5069061;28;20384;-73
2022/09/07 07:15:21;;;;;;;5.78;3.42;;;17.00;99.90;;;;;;5070229;28;20486;-72
2022/09/07 07:17:47;;;;;;;3.78;3.00;;;16.90;99.90;;;;;;5070842;28;20901;-72
2022/09/07 07:20:12;;;;;;;6.35;3.58;;;16.90;99.90;;;;;;5069577;28;20687;-72
2022/09/07 07:22:38;;;;;;;6.23;3.57;;;16.90;99.90;;;;;;5058272;28;20398;-72
2022/09/07 07:25:04;;;;;;;5.20;3.28;;;16.90;99.90;;;;;;5061179;28;20662;-69
2022/09/07 07:27:32;;;;;;;5.68;3.70;;;16.80;99.90;;;;;;5078434;28;20453;-71
2022/09/07 07:29:58;;;;;;;4.78;3.30;;;16.80;99.90;;;;;;5062993;28;20442;-71
2022/09/07 07:32:24;;;;;;;4.43;3.20;;;16.70;99.90;;;;;;5078171;28;20376;-71
2022/09/07 07:34:49;;;;;;;5.20;3.47;;;16.70;99.90;;;;;;5076784;28;20387;-71
2022/09/07 07:37:15;;;;;;;4.07;3.10;;;16.70;99.90;;;;;;5074456;28;20692;-71
2022/09/07 07:39:41;;;;;;;4.43;3.38;;;16.70;99.90;;;;;;5073948;28;20403;-72
2022/09/07 07:42:07;;;;;;;5.77;3.73;;;16.70;99.90;;;;;;5073241;28;20593;-71
2022/09/07 07:44:33;;;;;;;5.32;3.40;;;16.70;99.90;;;;;;5070378;28;20379;-71
2022/09/07 07:46:59;;;;;;;5.05;3.60;;;16.70;99.90;;;;;;5054751;28;20611;-71
2022/09/07 07:49:24;;;;;;;5.13;3.60;;;16.70;99.90;;;;;;5071961;28;20387;-71
2022/09/07 07:51:53;;;;;;;6.10;3.80;;;16.70;99.90;;;;;;5071956;28;20709;-71
2022/09/07 07:54:19;;;;;;;7.13;4.00;;;16.70;99.90;;;;;;5071084;28;20478;-71
2022/09/07 07:56:44;;;;;;;5.43;3.90;;;16.60;99.90;;;;;;5075462;28;20434;-72
2022/09/07 07:59:10;;;;;;;5.00;3.80;;;16.60;99.90;;;;;;5074032;28;20476;-72
2022/09/07 08:01:36;;;;;;;5.53;3.50;;;16.60;99.90;;;;;;5059629;28;20803;-72
2022/09/07 08:04:02;;;;;;;5.38;3.90;;;16.60;99.90;;;;;;5081766;28;20450;-72
2022/09/07 08:06:28;;;;;;;4.60;3.72;;;16.50;99.90;;;;;;5079391;28;20387;-72
2022/09/07 08:08:54;;;;;;;6.22;3.90;;;16.50;99.90;;;;;;5080987;28;20399;-72
2022/09/07 08:11:21;;;;;;;7.40;3.83;;;16.50;99.90;;;;;;5082385;28;20548;-71
2022/09/07 08:13:51;;;;;;;6.35;3.80;;;16.50;99.90;;;;;;5082151;28;20379;-71
2022/09/07 08:16:17;;;;;;;4.50;3.60;;;16.50;99.90;;;;;;5065149;28;20433;-71
2022/09/07 08:18:44;;;;;;;9.23;4.07;;;16.60;99.90;;;;;;5065829;28;20415;-71
2022/09/07 08:21:12;;;;;;;5.85;3.70;;;16.50;99.90;;;;;;5082023;28;20384;-71
2022/09/07 08:23:38;;;;;;;5.55;3.95;;;16.50;99.90;;;;;;5067211;28;20703;-71
2022/09/07 08:26:05;;;;;;;5.63;3.70;;;16.50;99.90;;;;;;5084667;28;21024;-71
2022/09/07 08:28:34;;;;;;;5.40;3.50;;;16.50;99.90;;;;;;5083111;28;20420;-71
2022/09/07 08:31:06;;;;;;;7.50;3.90;;;16.50;99.90;;;;;;5067699;28;20383;-72
2022/09/07 08:33:35;;;;;;;5.88;3.33;;;16.40;99.90;;;;;;5082014;28;20391;-72
2022/09/07 08:36:06;;;;;;;5.22;3.65;;;16.40;99.90;;;;;;5081149;28;20833;-71
2022/09/07 08:38:34;;;;;;;8.00;3.90;;;16.50;99.90;;;;;;5080773;28;20407;-69
2022/09/07 08:41:01;;;;;;;6.07;3.58;;;16.40;99.90;;;;;;5082369;28;20396;-70
2022/09/07 08:43:32;;;;;;;5.10;3.65;;;16.50;99.90;;;;;;5081969;28;20414;-70
2022/09/07 08:46:07;;;;;;;4.73;3.50;;;16.50;99.90;;;;;;5067219;28;20788;-69
2022/09/07 08:48:34;;;;;;;4.32;3.63;;;16.50;99.90;;;;;;5080757;28;20376;-70
2022/09/07 08:51:10;;;;;;;6.28;3.72;;;16.50;99.90;;;;;;5078978;28;21063;-70
2022/09/07 08:53:42;;;;;;;7.82;3.65;;;16.50;99.90;;;;;;5079384;28;20376;-71
2022/09/07 08:56:15;;;;;;;8.37;3.37;;;16.50;99.90;;;;;;5081685;28;20633;-71
2022/09/07 08:58:50;;;;;;;5.88;3.60;;;16.50;99.90;;;;;;5080334;28;20791;-69
2022/09/07 09:01:37;;;;;;;6.57;3.45;;;16.50;99.90;;;;;;5077940;28;20415;-70
2022/09/07 09:04:08;;;;;;;6.85;3.42;;;16.60;99.90;;;;;;5074553;28;20403;-69
2022/09/07 09:07:16;;;;;;;6.80;3.67;;;16.60;99.90;;;;;;5076305;28;20390;-70
2022/09/07 09:09:51;;;;;;;6.30;3.85;;;16.60;99.90;;;;;;5060518;28;21125;-69
2022/09/07 09:12:45;;;;;;;6.35;3.65;;;16.60;99.90;;;;;;5058471;28;20748;-70
2022/09/07 09:15:25;;;;;;;7.28;4.03;;;16.60;99.90;;;;;;5071842;28;20843;-70
2022/09/07 09:18:03;;;;;;;5.68;3.60;;;16.70;99.90;;;;;;5057672;28;20408;-70
2022/09/07 09:20:38;;;;;;;5.55;3.65;;;16.80;99.90;;;;;;5048866;28;20548;-70
2022/09/07 09:23:11;;;;;;;6.35;3.65;;;16.90;99.90;;;;;;5047890;28;20420;-70
2022/09/07 09:25:39;;;;;;;3.88;3.28;;;17.00;99.90;;;;;;5064594;28;20814;-71
2022/09/07 09:28:06;;;;;;;3.45;3.15;;;17.10;99.90;;;;;;5065634;28;20867;-70
2022/09/07 09:30:32;;;;;;;4.80;3.40;;;17.20;99.90;;;;;;5065515;28;20635;-71
2022/09/07 09:33:24;;;;;;;5.75;3.25;;;17.40;99.90;;;;;;5065580;28;20720;-70
2022/09/07 09:35:55;;;;;;;5.05;3.10;;;17.40;99.90;;;;;;5044802;28;20430;-70
2022/09/07 09:38:33;;;;;;;4.03;3.27;;;17.50;99.90;;;;;;5071877;28;20576;-70
2022/09/07 09:41:08;;;;;;;4.28;2.80;;;17.50;99.90;;;;;;5056035;28;20414;-70
2022/09/07 09:43:39;;;;;;;4.88;3.03;;;17.50;99.90;;;;;;5075484;28;20376;-69
2022/09/07 09:46:18;;;;;;;3.53;2.85;;;17.50;99.90;;;;;;5060479;28;20389;-70
2022/09/07 09:48:56;;;;;;;4.10;2.60;;;17.60;99.90;;;;;;5076985;28;20396;-70
2022/09/07 09:51:23;;;;;;;4.68;2.65;;;17.60;99.90;;;;;;5075214;28;20411;-69
2022/09/07 09:54:27;;;;;;;3.63;3.15;;;17.70;99.90;;;;;;5073799;28;20666;-69
2022/09/07 09:56:53;;;;;;;4.57;3.45;;;17.60;99.90;;;;;;5073883;28;20475;-70
2022/09/07 09:59:22;;;;;;;5.30;3.40;;;17.60;99.90;;;;;;5059958;28;20556;-71
2022/09/07 10:01:49;;;;;;;4.38;3.25;;;17.60;99.90;;;;;;5074258;28;20440;-70
2022/09/07 10:04:29;;;;;;;3.42;2.80;;;17.70;99.90;;;;;;5074642;28;20593;-70
2022/09/07 10:07:25;;;;;;;5.30;3.20;;;17.90;99.90;;;;;;5058810;28;20478;-69
2022/09/07 10:09:53;;;;;;;6.07;3.35;;;17.90;99.90;;;;;;5074477;28;20461;-69
2022/09/07 10:12:32;;;;;;;5.03;3.50;;;18.00;99.90;;;;;;5075604;28;20732;-69
2022/09/07 10:14:59;;;;;;;6.10;3.50;;;18.10;99.90;;;;;;5074665;28;20403;-69
2022/09/07 10:17:29;;;;;;;5.60;3.83;;;18.10;99.90;;;;;;5070973;28;20480;-69
2022/09/07 10:20:21;;;;;;;4.20;3.80;;;18.20;99.90;;;;;;5068572;28;20665;-69
2022/09/07 10:22:53;;;;;;;4.22;3.20;;;18.20;99.90;;;;;;5068438;28;20556;-70
2022/09/07 10:25:39;;;;;;;3.20;2.90;;;18.30;99.90;;;;;;5059032;28;20392;-69
2022/09/07 10:28:19;;;;;;;5.15;3.30;;;18.50;99.90;;;;;;5076273;28;20391;-70
2022/09/07 10:31:02;;;;;;;4.53;3.35;;;18.70;99.90;;;;;;5059270;28;20460;-70
2022/09/07 10:33:56;;;;;;;3.30;3.00;;;18.80;99.90;;;;;;5076637;28;20644;-69
2022/09/07 10:36:40;;;;;;;6.90;4.60;;;18.90;99.90;;;;;;5059920;28;20515;-69
2022/09/07 10:39:13;;;;;;;4.78;3.67;;;18.90;99.90;;;;;;5056457;28;20427;-69
2022/09/07 10:41:54;;;;;;;4.45;3.40;;;19.00;99.90;;;;;;5069105;28;20651;-70
2022/09/07 10:45:04;;;;;;;4.20;3.10;;;19.20;99.90;;;;;;5053682;28;20857;-69
2022/09/07 10:47:37;;;;;;;2.70;2.50;;;19.30;99.90;;;;;;5069639;28;20626;-69
2022/09/07 10:50:21;;;;;;;2.75;2.45;;;19.40;99.90;;;;;;5051678;28;20387;-69
2022/09/07 10:53:13;;;;;;;3.22;2.90;;;19.70;99.90;;;;;;5052326;28;20406;-69
2022/09/07 10:55:42;;;;;;;4.78;3.97;;;19.90;99.90;;;;;;5065463;28;20391;-69
2022/09/07 10:58:27;;;;;;;3.83;3.17;;;20.00;99.90;;;;;;5054606;28;20395;-70
2022/09/07 11:01:05;;;;;;;3.90;2.92;;;20.30;99.90;;;;;;5058976;28;20663;-70
2022/09/07 11:03:57;;;;;;;2.97;2.67;;;20.60;99.90;;;;;;5059450;28;20391;-70
2022/09/07 11:06:47;;;;;;;3.70;2.90;;;20.80;99.90;;;;;;5055378;28;20372;-69
2022/09/07 11:09:48;;;;;;;4.13;3.70;;;21.00;99.90;;;;;;5071679;28;20387;-70
2022/09/07 11:12:21;;;;;;;5.40;3.33;;;21.00;99.90;;;;;;5074498;28;20518;-70
2022/09/07 11:14:55;;;;;;;5.25;3.58;;;21.20;99.90;;;;;;5075129;28;20667;-70
2022/09/07 11:17:26;;;;;;;4.25;3.10;;;21.30;99.90;;;;;;5060363;28;20485;-69
2022/09/07 11:20:00;;;;;;;2.92;2.63;;;21.40;99.90;;;;;;5080527;28;20376;-69
2022/09/07 11:22:28;;;;;;;3.72;3.33;;;21.50;99.90;;;;;;5065804;28;20404;-69
2022/09/07 11:25:13;;;;;;;3.10;2.80;;;21.50;99.90;;;;;;5063468;28;20442;-70
2022/09/07 11:27:45;;;;;;;3.97;3.10;;;21.70;99.90;;;;;;5066219;28;20741;-70
2022/09/07 11:30:18;;;;;;;5.30;3.80;;;21.90;99.90;;;;;;5084152;28;20511;-69
2022/09/07 11:32:57;;;;;;;6.43;3.88;;;21.90;99.90;;;;;;5066553;28;20391;-69
2022/09/07 11:35:32;;;;;;;3.47;3.13;;;21.90;99.90;;;;;;5065994;28;20461;-70
2022/09/07 11:38:08;;;;;;;5.70;3.72;;;22.00;99.90;;;;;;5080122;28;20436;-70
2022/09/07 11:40:38;;;;;;;3.15;2.85;;;22.10;99.90;;;;;;5080506;28;21166;-70
2022/09/07 11:43:20;;;;;;;3.70;3.40;;;22.20;99.90;;;;;;5065846;28;20380;-70
2022/09/07 11:45:52;;;;;;;3.42;2.90;;;22.40;99.90;;;;;;5064282;28;20379;-70
2022/09/07 11:48:41;;;;;;;4.97;4.00;;;22.50;99.90;;;;;;5077188;28;20384;-70
2022/09/07 11:51:14;;;;;;;5.15;4.05;;;22.60;99.90;;;;;;5075052;28;20384;-70
2022/09/07 11:53:45;;;;;;;4.50;3.50;;;22.60;99.90;;;;;;5077319;28;20844;-71
2022/09/07 11:56:18;;;;;;;3.30;3.00;;;22.80;99.90;;;;;;5078660;28;20404;-70
2022/09/07 11:59:05;;;;;;;4.03;3.42;;;22.90;99.90;;;;;;5061007;28;20438;-70
2022/09/07 12:02:09;;;;;;;3.00;2.70;;;23.00;99.90;;;;;;5062457;28;20383;-70
2022/09/07 12:05:16;;;;;;;3.05;2.72;;;23.00;99.90;;;;;;5044283;28;20415;-70
2022/09/07 12:07:51;;;;;;;2.80;2.50;;;23.10;99.90;;;;;;5059293;28;20409;-70
2022/09/07 12:10:32;;;;;;;4.60;2.90;;;23.20;99.90;;;;;;5060396;28;20523;-69
2022/09/07 12:13:36;;;;;;;4.18;3.40;;;23.20;99.90;;;;;;5065327;28;20815;-71
2022/09/07 12:16:12;;;;;;;3.28;2.97;;;23.20;99.90;;;;;;5070036;28;20418;-71
2022/09/07 12:19:11;;;;;;;4.78;3.20;;;23.30;99.90;;;;;;5070729;28;20414;-71
2022/09/07 12:21:43;;;;;;;3.95;2.90;;;23.40;99.90;;;;;;5072243;28;20368;-72
2022/09/07 12:24:34;;;;;;;3.22;2.70;;;23.60;99.90;;;;;;5066670;28;20383;-71
2022/09/07 12:27:01;;;;;;;2.72;2.40;;;23.90;99.90;;;;;;5085170;28;20719;-71
2022/09/07 12:29:28;;;;;;;4.10;3.00;;;24.00;99.90;;;;;;5086876;28;20498;-72
2022/09/07 12:31:56;;;;;;;3.42;2.92;;;24.20;99.90;;;;;;5085314;28;20456;-72
2022/09/07 12:34:31;;;;;;;4.43;2.90;;;24.30;99.90;;;;;;5082896;28;20700;-73
2022/09/07 12:36:58;;;;;;;2.95;2.70;;;24.60;99.90;;;;;;5059998;28;20469;-70
2022/09/07 12:39:28;;;;;;;4.20;2.83;;;24.90;99.90;;;;;;5072502;28;20458;-71
2022/09/07 12:42:08;;;;;;;2.72;2.53;;;25.30;99.90;;;;;;5074659;28;20471;-71
2022/09/07 12:44:35;;;;;;;6.03;3.00;;;25.50;99.90;;;;;;5057051;28;20384;-71
2022/09/07 12:47:19;;;;;;;5.22;2.88;;;25.80;99.90;;;;;;5072024;28;20390;-70
2022/09/07 12:50:14;;;;;;;3.67;3.00;;;25.90;99.90;;;;;;5071277;28;20426;-71
2022/09/07 12:52:44;;;;;;;4.35;2.75;;;25.80;99.90;;;;;;5056670;28;20426;-71
2022/09/07 12:55:22;;;;;;;3.05;2.72;;;26.00;99.90;;;;;;5056786;28;20408;-71
2022/09/07 12:57:59;;;;;;;3.42;2.85;;;26.30;99.90;;;;;;5058426;28;20399;-71
2022/09/07 13:00:57;;;;;;;4.13;3.20;;;26.40;99.90;;;;;;5077174;28;20380;-71
2022/09/07 13:03:31;;;;;;;3.63;2.87;;;25.90;99.90;;;;;;5038744;28;20400;-71
2022/09/07 13:06:11;;;;;;;2.90;2.60;;;26.20;99.90;;;;;;5077722;28;20380;-71
2022/09/07 13:09:08;;;;;;;3.38;3.13;;;26.60;99.90;;;;;;5077813;28;20444;-71
2022/09/07 13:11:39;;;;;;;3.42;3.13;;;27.00;99.90;;;;;;5061157;28;20406;-70
2022/09/07 13:14:14;;;;;;;4.18;3.78;;;26.80;99.90;;;;;;5061507;28;20391;-71